sensor_id;sensor_type;location;lat;lon;timestamp;pressure;altitude;pressure_sealevel;temperature;humidity
26839;BME280;40088;51.214;6.786;2023-03-14T00:07:15;98816.59;;;16.87;53.37
26839;BME280;40088;51.214;6.786;2023-03-14T00:17:16;98800.34;;;16.85;53.35
26839;BME280;40088;51.214;6.786;2023-03-14T00:27:16;98835.03;;;16.86;53.42
26839;BME280;40088;51.214;6.786;2023-03-14T00:37:16;98887.06;;;16.88;53.42
26839;BME280;40088;51.214;6.786;2023-03-14T00:47:17;98908.22;;;16.87;53.27
26839;BME280;40088;51.214;6.786;2023-03-14T00:57:17;98881.44;;;16.83;53.60
26839;BME280;40088;51.214;6.786;2023-03-14T01:07:17;98873.19;;;16.83;53.55
26839;BME280;40088;51.214;6.786;2023-03-14T01:17:17;98868.50;;;16.83;53.49
26839;BME280;40088;51.214;6.786;2023-03-14T01:27:18;98872.81;;;16.79;53.58
26839;BME280;40088;51.214;6.786;2023-03-14T01:37:18;98841.72;;;16.79;53.89
26839;BME280;40088;51.214;6.786;2023-03-14T01:47:19;98841.00;;;16.83;53.73
26839;BME280;40088;51.214;6.786;2023-03-14T01:57:27;98830.00;;;16.83;53.63
26839;BME280;40088;51.214;6.786;2023-03-14T02:07:56;98823.66;;;16.83;53.65
26839;BME280;40088;51.214;6.786;2023-03-14T02:17:58;98823.91;;;16.81;53.87
26839;BME280;40088;51.214;6.786;2023-03-14T02:28:01;98825.22;;;16.79;54.06
26839;BME280;40088;51.214;6.786;2023-03-14T02:38:07;98840.66;;;16.80;53.83
26839;BME280;40088;51.214;6.786;2023-03-14T02:48:19;98825.00;;;16.80;53.73
26839;BME280;40088;51.214;6.786;2023-03-14T02:58:21;98816.50;;;16.82;54.12
26839;BME280;40088;51.214;6.786;2023-03-14T03:08:23;98800.81;;;16.82;53.71
26839;BME280;40088;51.214;6.786;2023-03-14T03:18:24;98797.50;;;16.80;53.86
26839;BME280;40088;51.214;6.786;2023-03-14T03:28:24;98791.13;;;16.80;53.43
26839;BME280;40088;51.214;6.786;2023-03-14T03:38:24;98799.63;;;16.78;53.72
26839;BME280;40088;51.214;6.786;2023-03-14T03:48:24;98782.31;;;16.78;53.78
26839;BME280;40088;51.214;6.786;2023-03-14T03:58:25;98760.28;;;16.78;53.93
26839;BME280;40088;51.214;6.786;2023-03-14T04:08:25;98754.78;;;16.78;53.77
26839;BME280;40088;51.214;6.786;2023-03-14T04:18:26;98745.47;;;16.79;54.02
26839;BME280;40088;51.214;6.786;2023-03-14T04:28:26;98747.13;;;16.80;54.04
26839;BME280;40088;51.214;6.786;2023-03-14T04:38:27;98730.63;;;16.80;53.98
26839;BME280;40088;51.214;6.786;2023-03-14T04:48:28;98722.16;;;16.81;54.07
26839;BME280;40088;51.214;6.786;2023-03-14T04:58:28;98715.81;;;16.81;54.07
26839;BME280;40088;51.214;6.786;2023-03-14T05:08:28;98695.47;;;16.82;54.05
26839;BME280;40088;51.214;6.786;2023-03-14T05:18:29;98682.56;;;16.82;54.06
26839;BME280;40088;51.214;6.786;2023-03-14T05:28:29;98672.38;;;16.83;53.96
26839;BME280;40088;51.214;6.786;2023-03-14T05:38:29;98657.78;;;16.82;54.07
26839;BME280;40088;51.214;6.786;2023-03-14T05:48:29;98667.72;;;16.83;54.19
26839;BME280;40088;51.214;6.786;2023-03-14T05:58:30;98655.88;;;16.83;54.15
26839;BME280;40088;51.214;6.786;2023-03-14T06:08:30;98655.63;;;16.84;54.03
26839;BME280;40088;51.214;6.786;2023-03-14T06:18:30;98654.78;;;16.84;53.96
26839;BME280;40088;51.214;6.786;2023-03-14T06:28:32;98659.19;;;16.85;54.01
26839;BME280;40088;51.214;6.786;2023-03-14T06:38:32;98675.72;;;16.85;54.17
26839;BME280;40088;51.214;6.786;2023-03-14T06:48:32;98675.47;;;16.86;54.03
26839;BME280;40088;51.214;6.786;2023-03-14T06:58:33;98677.16;;;16.87;54.05
26839;BME280;40088;51.214;6.786;2023-03-14T07:08:33;98677.16;;;16.87;54.33
26839;BME280;40088;51.214;6.786;2023-03-14T07:18:33;98688.41;;;16.86;54.17
26839;BME280;40088;51.214;6.786;2023-03-14T07:28:34;98701.66;;;16.89;54.13
26839;BME280;40088;51.214;6.786;2023-03-14T07:38:35;98708.25;;;16.88;54.16
26839;BME280;40088;51.214;6.786;2023-03-14T07:48:35;98721.75;;;16.89;54.07
26839;BME280;40088;51.214;6.786;2023-03-14T07:58:35;98721.50;;;16.91;54.19
26839;BME280;40088;51.214;6.786;2023-03-14T08:08:36;98718.75;;;16.91;54.21
26839;BME280;40088;51.214;6.786;2023-03-14T08:18:36;98720.44;;;16.92;54.11
26839;BME280;40088;51.214;6.786;2023-03-14T08:28:36;98730.59;;;16.91;54.12
26839;BME280;40088;51.214;6.786;2023-03-14T08:38:36;98731.19;;;16.93;54.08
26839;BME280;40088;51.214;6.786;2023-03-14T08:48:37;98740.25;;;16.94;54.02
26839;BME280;40088;51.214;6.786;2023-03-14T08:58:37;98765.03;;;16.94;54.16
26839;BME280;40088;51.214;6.786;2023-03-14T09:08:38;98788.69;;;16.95;54.13
26839;BME280;40088;51.214;6.786;2023-03-14T09:18:38;98828.31;;;16.94;54.18
26839;BME280;40088;51.214;6.786;2023-03-14T09:28:38;98914.44;;;16.95;54.27
26839;BME280;40088;51.214;6.786;2023-03-14T09:38:38;98972.19;;;16.95;54.31
26839;BME280;40088;51.214;6.786;2023-03-14T09:48:39;98985.13;;;16.94;54.39
26839;BME280;40088;51.214;6.786;2023-03-14T09:58:43;99023.53;;;16.89;54.53
26839;BME280;40088;51.214;6.786;2023-03-14T10:08:45;99074.50;;;16.91;54.49
26839;BME280;40088;51.214;6.786;2023-03-14T10:18:45;99100.22;;;16.85;54.39
26839;BME280;40088;51.214;6.786;2023-03-14T10:28:50;99137.03;;;16.84;53.96
26839;BME280;40088;51.214;6.786;2023-03-14T10:38:57;99179.13;;;16.85;53.93
26839;BME280;40088;51.214;6.786;2023-03-14T10:49:05;99210.22;;;17.15;53.05
26839;BME280;40088;51.214;6.786;2023-03-14T10:59:15;99240.38;;;17.52;51.97
26839;BME280;40088;51.214;6.786;2023-03-14T11:09:25;99308.59;;;17.50;51.70
26839;BME280;40088;51.214;6.786;2023-03-14T11:19:43;99334.34;;;17.26;52.31
26839;BME280;40088;51.214;6.786;2023-03-14T11:50:24;99446.84;;;17.04;52.91
26839;BME280;40088;51.214;6.786;2023-03-14T12:00:26;99471.03;;;17.02;53.08
26839;BME280;40088;51.214;6.786;2023-03-14T12:10:27;99530.84;;;16.88;53.13
26839;BME280;40088;51.214;6.786;2023-03-14T12:20:27;99542.25;;;16.91;52.96
26839;BME280;40088;51.214;6.786;2023-03-14T12:30:41;99580.28;;;16.95;52.71
26839;BME280;40088;51.214;6.786;2023-03-14T12:41:14;99604.22;;;16.94;52.60
26839;BME280;40088;51.214;6.786;2023-03-14T12:51:17;99637.25;;;16.94;52.46
26839;BME280;40088;51.214;6.786;2023-03-14T13:01:19;99695.88;;;16.95;52.39
26839;BME280;40088;51.214;6.786;2023-03-14T13:11:20;99732.47;;;16.95;52.30
26839;BME280;40088;51.214;6.786;2023-03-14T13:21:22;99765.50;;;16.95;52.07
26839;BME280;40088;51.214;6.786;2023-03-14T13:31:25;99778.44;;;16.95;52.20
26839;BME280;40088;51.214;6.786;2023-03-14T13:41:27;99792.00;;;16.96;52.03
26839;BME280;40088;51.214;6.786;2023-03-14T13:51:27;99818.44;;;16.97;51.90
26839;BME280;40088;51.214;6.786;2023-03-14T14:01:37;99831.34;;;16.97;51.96
26839;BME280;40088;51.214;6.786;2023-03-14T14:11:43;99848.72;;;16.97;51.93
26839;BME280;40088;51.214;6.786;2023-03-14T14:21:45;99866.91;;;16.98;51.92
26839;BME280;40088;51.214;6.786;2023-03-14T14:31:46;99870.72;;;16.97;51.85
26839;BME280;40088;51.214;6.786;2023-03-14T14:41:48;99906.28;;;16.99;51.72
26839;BME280;40088;51.214;6.786;2023-03-14T14:51:50;99942.91;;;16.99;51.74
26839;BME280;40088;51.214;6.786;2023-03-14T15:01:55;99977.84;;;16.99;51.75
26839;BME280;40088;51.214;6.786;2023-03-14T15:11:56;100010.88;;;16.99;51.38
26839;BME280;40088;51.214;6.786;2023-03-14T15:21:56;100033.72;;;16.99;51.32
26839;BME280;40088;51.214;6.786;2023-03-14T15:31:56;100062.31;;;16.98;51.21
26839;BME280;40088;51.214;6.786;2023-03-14T15:41:56;100077.75;;;16.99;51.10
26839;BME280;40088;51.214;6.786;2023-03-14T15:51:57;100093.66;;;16.97;50.59
26839;BME280;40088;51.214;6.786;2023-03-14T16:01:58;100130.28;;;16.98;50.62
26839;BME280;40088;51.214;6.786;2023-03-14T16:11:58;100155.69;;;16.93;50.77
26839;BME280;40088;51.214;6.786;2023-03-14T16:21:58;100190.59;;;16.86;50.48
26839;BME280;40088;51.214;6.786;2023-03-14T16:31:58;100229.31;;;16.84;50.20
26839;BME280;40088;51.214;6.786;2023-03-14T16:41:59;100252.63;;;16.82;49.87
26839;BME280;40088;51.214;6.786;2023-03-14T16:51:59;100269.13;;;16.82;50.04
26839;BME280;40088;51.214;6.786;2023-03-14T17:01:59;100281.19;;;16.81;50.01
26839;BME280;40088;51.214;6.786;2023-03-14T17:12:00;100309.72;;;16.80;49.83
26839;BME280;40088;51.214;6.786;2023-03-14T17:22:00;100341.06;;;16.79;49.87
26839;BME280;40088;51.214;6.786;2023-03-14T17:32:01;100372.38;;;16.78;49.80
26839;BME280;40088;51.214;6.786;2023-03-14T17:42:01;100400.75;;;16.78;49.99
26839;BME280;40088;51.214;6.786;2023-03-14T17:52:01;100425.72;;;16.77;49.81
26839;BME280;40088;51.214;6.786;2023-03-14T18:02:01;100458.75;;;16.77;49.87
26839;BME280;40088;51.214;6.786;2023-03-14T18:12:02;100486.25;;;16.77;49.88
26839;BME280;40088;51.214;6.786;2023-03-14T18:22:02;100508.47;;;16.75;49.75
26839;BME280;40088;51.214;6.786;2023-03-14T18:32:03;100535.78;;;16.77;49.46
26839;BME280;40088;51.214;6.786;2023-03-14T18:42:03;100557.16;;;16.75;49.58
26839;BME280;40088;51.214;6.786;2023-03-14T18:52:03;100580.19;;;16.74;49.73
26839;BME280;40088;51.214;6.786;2023-03-14T19:02:04;100586.56;;;16.74;49.63
26839;BME280;40088;51.214;6.786;2023-03-14T19:12:04;100601.38;;;16.73;49.30
26839;BME280;40088;51.214;6.786;2023-03-14T19:22:04;100631.63;;;16.73;49.33
26839;BME280;40088;51.214;6.786;2023-03-14T19:32:05;100645.41;;;16.73;49.11
26839;BME280;40088;51.214;6.786;2023-03-14T19:42:05;100666.34;;;16.74;49.33
26839;BME280;40088;51.214;6.786;2023-03-14T19:52:05;100686.66;;;16.73;49.46
26839;BME280;40088;51.214;6.786;2023-03-14T20:02:06;100696.81;;;16.73;49.47
26839;BME280;40088;51.214;6.786;2023-03-14T20:12:07;100711.63;;;16.72;49.28
26839;BME280;40088;51.214;6.786;2023-03-14T20:22:08;100727.94;;;16.73;49.10
26839;BME280;40088;51.214;6.786;2023-03-14T20:32:09;100730.91;;;16.72;49.12
26839;BME280;40088;51.214;6.786;2023-03-14T20:42:09;100751.00;;;16.72;49.14
26839;BME280;40088;51.214;6.786;2023-03-14T20:52:09;100748.25;;;16.72;49.29
26839;BME280;40088;51.214;6.786;2023-03-14T21:02:11;100763.91;;;16.72;49.05
26839;BME280;40088;51.214;6.786;2023-03-14T21:12:13;100769.22;;;16.73;49.11
26839;BME280;40088;51.214;6.786;2023-03-14T21:22:13;100773.88;;;16.73;48.91
26839;BME280;40088;51.214;6.786;2023-03-14T21:32:17;100783.19;;;16.72;49.08
26839;BME280;40088;51.214;6.786;2023-03-14T21:42:18;100792.28;;;16.72;49.13
26839;BME280;40088;51.214;6.786;2023-03-14T21:52:19;100800.53;;;16.72;48.90
26839;BME280;40088;51.214;6.786;2023-03-14T22:02:20;100807.09;;;16.71;48.70
26839;BME280;40088;51.214;6.786;2023-03-14T22:12:21;100812.59;;;16.71;48.81
26839;BME280;40088;51.214;6.786;2023-03-14T22:22:22;100821.88;;;16.70;48.94
26839;BME280;40088;51.214;6.786;2023-03-14T22:32:22;100822.72;;;16.71;48.76
26839;BME280;40088;51.214;6.786;2023-03-14T22:42:22;100829.94;;;16.72;48.73
26839;BME280;40088;51.214;6.786;2023-03-14T22:52:23;100847.47;;;16.71;48.32
26839;BME280;40088;51.214;6.786;2023-03-14T23:02:23;100847.66;;;16.69;48.63
26839;BME280;40088;51.214;6.786;2023-03-14T23:12:23;100853.16;;;16.69;48.55
26839;BME280;40088;51.214;6.786;2023-03-14T23:22:24;100861.41;;;16.69;48.51
26839;BME280;40088;51.214;6.786;2023-03-14T23:32:24;100859.53;;;16.70;48.40
26839;BME280;40088;51.214;6.786;2023-03-14T23:42:24;100852.31;;;16.68;48.47
26839;BME280;40088;51.214;6.786;2023-03-14T23:52:25;100868.81;;;16.68;48.38
